createdAt,value
2019-06-20T00:00:47.212Z,13.9
2019-06-20T00:01:37.009Z,13.9
2019-06-20T00:02:27.081Z,13.8
2019-06-20T00:03:17.394Z,13.8
2019-06-20T00:04:07.444Z,13.8
2019-06-20T00:04:57.561Z,13.8
2019-06-20T00:05:47.291Z,13.8
2019-06-20T00:06:37.055Z,13.8
2019-06-20T00:07:27.686Z,13.8
2019-06-20T00:08:17.482Z,13.8
2019-06-20T00:09:07.538Z,13.8
2019-06-20T00:09:57.866Z,13.8
2019-06-20T00:10:47.921Z,13.8
2019-06-20T00:11:37.979Z,13.8
2019-06-20T00:12:28.044Z,13.8
2019-06-20T00:13:18.096Z,13.8
2019-06-20T00:14:08.171Z,13.8
2019-06-20T00:14:58.241Z,13.8
2019-06-20T00:15:48.324Z,13.8
2019-06-20T00:16:38.097Z,13.8
2019-06-20T00:17:28.411Z,13.8
2019-06-20T00:18:18.508Z,13.8
2019-06-20T00:19:08.515Z,13.8
2019-06-20T00:19:58.581Z,13.8
2019-06-20T00:20:48.686Z,13.8
2019-06-20T00:21:38.416Z,13.8
2019-06-20T00:22:28.744Z,13.8
2019-06-20T00:23:18.830Z,13.8
2019-06-20T00:24:08.907Z,13.8
2019-06-20T00:24:58.671Z,13.8
2019-06-20T00:25:48.995Z,13.8
2019-06-20T00:26:38.846Z,13.8
2019-06-20T00:27:29.119Z,13.7
2019-06-20T00:28:19.193Z,13.7
2019-06-20T00:29:08.963Z,13.7
2019-06-20T00:29:59.304Z,13.7
2019-06-20T00:30:49.396Z,13.7
2019-06-20T00:31:39.423Z,13.7
2019-06-20T00:32:29.460Z,13.7
2019-06-20T00:33:19.539Z,13.7
2019-06-20T00:34:09.593Z,13.7
2019-06-20T00:34:59.123Z,13.7
2019-06-20T00:35:49.739Z,13.7
2019-06-20T00:36:39.491Z,13.7
2019-06-20T00:37:29.852Z,13.6
2019-06-20T00:38:19.355Z,13.6
2019-06-20T00:39:09.950Z,13.6
2019-06-20T00:40:00.005Z,13.6
2019-06-20T00:40:49.795Z,13.6
2019-06-20T00:41:39.577Z,13.6
2019-06-20T00:42:29.639Z,13.6
2019-06-20T00:43:20.237Z,13.6
2019-06-20T00:44:09.770Z,13.6
2019-06-20T00:45:00.389Z,13.6
2019-06-20T00:45:50.152Z,13.6
2019-06-20T00:46:40.491Z,13.6
2019-06-20T00:47:30.539Z,13.6
2019-06-20T00:48:20.079Z,13.6
2019-06-20T00:49:10.696Z,13.6
2019-06-20T00:50:00.465Z,13.6
2019-06-20T00:50:50.817Z,13.6
2019-06-20T00:51:40.844Z,13.6
2019-06-20T00:52:30.939Z,13.6
2019-06-20T00:53:20.973Z,13.6
2019-06-20T00:54:11.027Z,13.6
2019-06-20T00:55:00.814Z,13.5
2019-06-20T00:55:51.175Z,13.5
2019-06-20T00:56:41.210Z,13.5
2019-06-20T00:57:31.279Z,13.5
2019-06-20T00:58:21.341Z,13.5
2019-06-20T00:59:11.101Z,13.5
2019-06-20T01:00:01.459Z,13.5
2019-06-20T01:00:51.509Z,13.5
2019-06-20T01:01:41.673Z,13.5
2019-06-20T01:02:31.621Z,13.4
2019-06-20T01:03:21.678Z,13.5
2019-06-20T01:04:11.739Z,13.5
2019-06-20T01:05:01.823Z,13.4
2019-06-20T01:05:51.583Z,13.4
2019-06-20T01:06:41.928Z,13.5
2019-06-20T01:07:32.009Z,13.5
2019-06-20T01:08:21.762Z,13.4
2019-06-20T01:09:12.093Z,13.4
2019-06-20T01:10:01.517Z,13.4
2019-06-20T01:10:51.936Z,13.4
2019-06-20T01:11:42.262Z,13.5
2019-06-20T01:12:32.058Z,13.4
2019-06-20T01:13:35.570Z,13.5
2019-06-20T01:15:01.989Z,13.5
2019-06-20T01:15:52.293Z,13.5
2019-06-20T01:16:42.678Z,13.5
2019-06-20T01:17:32.723Z,13.5
2019-06-20T01:18:22.746Z,13.5
2019-06-20T01:19:12.795Z,13.5
2019-06-20T01:20:03.149Z,13.5
2019-06-20T01:20:52.658Z,13.5
2019-06-20T01:21:42.450Z,13.5
2019-06-20T01:22:33.040Z,13.5
2019-06-20T01:23:22.830Z,13.5
2019-06-20T01:24:13.172Z,13.5
2019-06-20T01:25:03.127Z,13.5
2019-06-20T01:25:53.056Z,13.5
2019-06-20T01:26:43.349Z,13.6
2019-06-20T01:27:33.449Z,13.6
2019-06-20T01:28:23.187Z,13.6
2019-06-20T01:29:13.582Z,13.6
2019-06-20T01:30:03.058Z,13.6
2019-06-20T01:30:53.657Z,13.6
2019-06-20T01:31:43.721Z,13.6
2019-06-20T01:32:33.482Z,13.6
2019-06-20T01:33:23.547Z,13.6
2019-06-20T01:34:13.884Z,13.6
2019-06-20T01:35:03.661Z,13.6
2019-06-20T01:35:54.017Z,13.6
2019-06-20T01:36:44.077Z,13.6
2019-06-20T01:37:33.861Z,13.6
2019-06-20T01:38:24.173Z,13.6
2019-06-20T01:39:13.699Z,13.6
2019-06-20T01:40:04.043Z,13.6
2019-06-20T01:40:53.817Z,13.6
2019-06-20T01:41:44.433Z,13.6
2019-06-20T01:42:34.211Z,13.6
2019-06-20T01:43:24.254Z,13.6
2019-06-20T01:44:14.581Z,13.6
2019-06-20T01:45:04.447Z,13.7
2019-06-20T01:45:54.709Z,13.6
2019-06-20T01:46:44.776Z,13.7
2019-06-20T01:47:34.836Z,13.7
2019-06-20T01:48:24.889Z,13.7
2019-06-20T01:49:14.436Z,13.7
2019-06-20T01:50:05.016Z,13.7
2019-06-20T01:50:55.079Z,13.7
2019-06-20T01:51:44.858Z,13.7
2019-06-20T01:52:34.713Z,13.7
2019-06-20T01:53:25.331Z,13.7
2019-06-20T01:54:15.056Z,13.7
2019-06-20T01:55:05.111Z,13.7
2019-06-20T01:55:55.222Z,13.8
2019-06-20T01:56:45.480Z,13.7
2019-06-20T01:57:35.590Z,13.7
2019-06-20T01:58:25.601Z,13.8
2019-06-20T01:59:15.392Z,13.8
2019-06-20T02:00:05.759Z,13.8
2019-06-20T02:00:55.815Z,13.8
2019-06-20T02:01:45.935Z,13.8
2019-06-20T02:02:35.932Z,13.8
2019-06-20T02:03:25.964Z,13.8
2019-06-20T02:04:15.500Z,13.8
2019-06-20T02:05:06.233Z,13.8
2019-06-20T02:05:56.228Z,13.8
2019-06-20T02:06:46.015Z,13.8
2019-06-20T02:07:36.275Z,13.8
2019-06-20T02:08:26.365Z,13.8
2019-06-20T02:09:15.835Z,13.8
2019-06-20T02:10:06.483Z,13.8
2019-06-20T02:10:56.523Z,13.8
2019-06-20T02:11:46.294Z,13.8
2019-06-20T02:12:36.664Z,13.8
2019-06-20T02:13:26.460Z,13.8
2019-06-20T02:14:16.737Z,13.8
2019-06-20T02:15:06.583Z,13.8
2019-06-20T02:15:56.886Z,13.8
2019-06-20T02:16:46.752Z,13.8
2019-06-20T02:17:36.708Z,13.8
2019-06-20T02:18:26.787Z,13.8
2019-06-20T02:19:17.127Z,13.8
2019-06-20T02:20:06.882Z,13.8
2019-06-20T02:20:56.705Z,13.9
2019-06-20T02:21:47.270Z,13.9
2019-06-20T02:22:37.072Z,13.9
2019-06-20T02:23:27.406Z,13.9
2019-06-20T02:24:17.289Z,13.9
2019-06-20T02:25:07.509Z,13.9
2019-06-20T02:25:57.569Z,13.9
2019-06-20T02:26:47.692Z,13.9
2019-06-20T02:27:37.714Z,13.9
2019-06-20T02:28:27.473Z,13.9
2019-06-20T02:29:17.858Z,13.9
2019-06-20T02:30:07.880Z,13.9
2019-06-20T02:30:57.661Z,13.9
2019-06-20T02:31:47.462Z,13.9
2019-06-20T02:32:38.060Z,13.9
2019-06-20T02:33:27.884Z,13.9
2019-06-20T02:34:18.190Z,13.9
2019-06-20T02:35:07.992Z,13.9
2019-06-20T02:35:58.055Z,13.9
2019-06-20T02:36:48.383Z,13.9
2019-06-20T02:37:38.467Z,13.9
2019-06-20T02:38:28.494Z,13.9
2019-06-20T02:39:18.577Z,13.9
2019-06-20T02:40:08.577Z,13.9
2019-06-20T02:40:58.406Z,13.9
2019-06-20T02:41:48.729Z,13.9
2019-06-20T02:42:38.766Z,13.9
2019-06-20T02:43:28.846Z,14
2019-06-20T02:44:32.186Z,14
2019-06-20T02:45:59.059Z,14
2019-06-20T02:46:48.798Z,14
2019-06-20T02:47:39.166Z,14
2019-06-20T02:48:29.193Z,14
2019-06-20T02:49:19.255Z,14
2019-06-20T02:50:09.045Z,14
2019-06-20T02:50:59.362Z,14
2019-06-20T02:51:49.163Z,14
2019-06-20T02:52:39.474Z,14
2019-06-20T02:53:29.300Z,14.1
2019-06-20T02:54:19.357Z,14.1
2019-06-20T02:55:09.647Z,14.1
2019-06-20T02:55:59.700Z,14
2019-06-20T02:56:49.774Z,14.1
2019-06-20T02:57:39.821Z,14.1
2019-06-20T02:58:29.607Z,14.1
2019-06-20T02:59:20.010Z,14.1
2019-06-20T03:00:10.016Z,14.1
2019-06-20T03:00:59.807Z,14.1
2019-06-20T03:01:50.126Z,14.1
2019-06-20T03:02:40.199Z,14.1
2019-06-20T03:06:01.894Z,14.1
2019-06-20T03:06:51.675Z,14.1
2019-06-20T03:07:42.012Z,14.1
2019-06-20T03:08:31.508Z,14.1
2019-06-20T03:09:22.134Z,14.1
2019-06-20T03:10:11.942Z,14.1
2019-06-20T03:11:01.691Z,14.1
2019-06-20T03:11:52.134Z,14.1
2019-06-20T03:12:41.901Z,14.1
2019-06-20T03:13:32.411Z,14.1
2019-06-20T03:14:22.498Z,14.2
2019-06-20T03:15:12.569Z,14.1
2019-06-20T03:16:02.614Z,14.2
2019-06-20T03:16:52.377Z,14.2
2019-06-20T03:17:42.735Z,14.2
2019-06-20T03:18:32.776Z,14.2
2019-06-20T03:19:22.838Z,14.2
2019-06-20T03:20:12.350Z,14.2
2019-06-20T03:21:02.675Z,14.2
2019-06-20T03:21:53.065Z,14.3
2019-06-20T03:22:42.936Z,14.3
2019-06-20T03:23:32.868Z,14.3
2019-06-20T03:24:23.193Z,14.3
2019-06-20T03:25:12.986Z,14.3
2019-06-20T03:26:03.330Z,14.3
2019-06-20T03:26:53.087Z,14.3
2019-06-20T03:27:43.161Z,14.3
2019-06-20T03:28:33.028Z,14.3
2019-06-20T03:29:23.541Z,14.3
2019-06-20T03:30:13.666Z,14.3
2019-06-20T03:31:03.702Z,14.3
2019-06-20T03:31:53.776Z,14.3
2019-06-20T03:32:43.813Z,14.3
2019-06-20T03:33:33.877Z,14.4
2019-06-20T03:34:23.920Z,14.4
2019-06-20T03:35:13.680Z,14.4
2019-06-20T03:36:03.765Z,14.4
2019-06-20T03:36:53.818Z,14.4
2019-06-20T03:37:44.155Z,14.4
2019-06-20T03:38:34.228Z,14.4
2019-06-20T03:39:23.712Z,14.4
2019-06-20T03:40:14.348Z,14.4
2019-06-20T03:41:04.385Z,14.4
2019-06-20T03:41:54.450Z,14.4
2019-06-20T03:42:44.522Z,14.4
2019-06-20T03:43:34.550Z,14.5
2019-06-20T03:44:24.357Z,14.5
2019-06-20T03:45:14.395Z,14.5
2019-06-20T03:46:04.739Z,14.5
2019-06-20T03:46:54.519Z,14.5
2019-06-20T03:47:44.329Z,14.6
2019-06-20T03:48:34.641Z,14.6
2019-06-20T03:49:24.689Z,14.6
2019-06-20T03:50:14.768Z,14.6
2019-06-20T03:51:05.108Z,14.6
2019-06-20T03:51:54.904Z,14.6
2019-06-20T03:52:44.929Z,14.6
2019-06-20T03:53:35.269Z,14.6
2019-06-20T03:54:25.334Z,14.7
2019-06-20T03:55:15.386Z,14.7
2019-06-20T03:56:05.471Z,14.7
2019-06-20T03:56:55.239Z,14.7
2019-06-20T03:57:45.581Z,14.8
2019-06-20T03:58:35.626Z,14.8
2019-06-20T03:59:25.679Z,14.8
2019-06-20T04:00:15.758Z,14.8
2019-06-20T04:01:05.806Z,14.8
2019-06-20T04:01:55.890Z,14.9
2019-06-20T04:02:45.935Z,14.9
2019-06-20T04:03:35.488Z,14.9
2019-06-20T04:04:25.779Z,14.9
2019-06-20T04:05:16.193Z,15
2019-06-20T04:06:06.185Z,15
2019-06-20T04:06:55.992Z,15
2019-06-20T04:07:46.035Z,15.1
2019-06-20T04:08:36.056Z,15.1
2019-06-20T04:09:26.463Z,15.1
2019-06-20T04:10:16.190Z,15.2
2019-06-20T04:11:06.239Z,15.2
2019-06-20T04:11:56.044Z,15.3
2019-06-20T04:12:46.645Z,15.3
2019-06-20T04:13:35.868Z,15.3
2019-06-20T04:14:26.788Z,15.4
2019-06-20T04:15:21.127Z,15.4
2019-06-20T04:16:06.938Z,15.4
2019-06-20T04:16:56.660Z,15.5
2019-06-20T04:17:46.718Z,15.5
2019-06-20T04:18:37.050Z,15.6
2019-06-20T04:19:26.852Z,15.6
2019-06-20T04:20:17.184Z,15.6
2019-06-20T04:21:06.965Z,15.7
2019-06-20T04:21:57.344Z,15.8
2019-06-20T04:22:47.357Z,15.8
2019-06-20T04:23:37.450Z,15.8
2019-06-20T04:24:29.557Z,15.9
2019-06-20T04:25:17.274Z,15.9
2019-06-20T04:26:07.726Z,15.9
2019-06-20T04:26:57.637Z,16
2019-06-20T04:27:47.710Z,16.1
2019-06-20T04:28:37.487Z,16.1
2019-06-20T04:29:27.536Z,16.1
2019-06-20T04:30:17.889Z,16.2
2019-06-20T04:31:07.960Z,16.3
2019-06-20T04:31:57.722Z,16.3
2019-06-20T04:32:48.157Z,16.4
2019-06-20T04:33:38.139Z,16.4
2019-06-20T04:34:27.911Z,16.5
2019-06-20T04:35:18.265Z,16.6
2019-06-20T04:36:08.376Z,16.6
2019-06-20T04:36:58.359Z,16.7
2019-06-20T04:37:48.416Z,16.8
2019-06-20T04:38:38.509Z,16.8
2019-06-20T04:39:28.523Z,16.9
2019-06-20T04:40:18.591Z,16.9
2019-06-20T04:41:58.706Z,17.1
2019-06-20T04:42:48.826Z,17.1
2019-06-20T04:43:38.857Z,17.2
2019-06-20T04:44:28.918Z,17.2
2019-06-20T04:45:36.311Z,17.3
2019-06-20T04:46:59.058Z,17.4
2019-06-20T04:47:48.851Z,17.5
2019-06-20T04:48:39.394Z,17.6
2019-06-20T04:49:29.446Z,17.6
2019-06-20T04:50:19.041Z,17.7
2019-06-20T04:51:08.545Z,17.8
2019-06-20T04:51:59.423Z,17.8
2019-06-20T04:52:49.217Z,17.9
2019-06-20T04:53:39.642Z,17.9
2019-06-20T04:54:29.605Z,18
2019-06-20T04:55:18.835Z,18.1
2019-06-20T04:56:09.447Z,18.1
2019-06-20T04:56:59.765Z,18.2
2019-06-20T04:57:49.862Z,18.3
2019-06-20T04:58:39.897Z,18.3
2019-06-20T04:59:29.957Z,18.4
2019-06-20T05:00:20.040Z,18.5
2019-06-20T05:01:10.085Z,18.6
2019-06-20T05:01:59.866Z,18.6
2019-06-20T05:03:40.269Z,18.8
2019-06-20T05:04:30.343Z,18.8
2019-06-20T05:05:20.097Z,18.9
2019-06-20T05:06:10.160Z,19
2019-06-20T05:07:00.512Z,19.1
2019-06-20T05:07:50.283Z,19.1
2019-06-20T05:08:40.607Z,19.3
2019-06-20T05:09:30.434Z,19.3
2019-06-20T05:10:20.732Z,19.4
2019-06-20T05:11:10.787Z,19.5
2019-06-20T05:12:01.024Z,19.6
2019-06-20T05:12:50.632Z,19.7
2019-06-20T05:13:40.692Z,19.8
2019-06-20T05:14:30.203Z,19.9
2019-06-20T05:15:21.167Z,20
2019-06-20T05:16:10.860Z,20.1
2019-06-20T05:17:01.191Z,20.3
2019-06-20T05:17:51.521Z,20.4
2019-06-20T05:18:41.121Z,20.5
2019-06-20T05:19:31.387Z,20.6
2019-06-20T05:20:21.454Z,20.8
2019-06-20T05:21:11.483Z,20.9
2019-06-20T05:22:01.271Z,21.1
2019-06-20T05:22:51.617Z,21.2
2019-06-20T05:23:41.678Z,21.3
2019-06-20T05:24:31.751Z,21.4
2019-06-20T05:25:21.789Z,21.6
2019-06-20T05:26:11.571Z,21.7
2019-06-20T05:27:01.976Z,21.9
2019-06-20T05:27:51.978Z,22
2019-06-20T05:28:42.118Z,22.1
2019-06-20T05:29:32.076Z,22.3
2019-06-20T05:30:22.153Z,22.4
2019-06-20T05:31:12.020Z,22.6
2019-06-20T05:32:02.043Z,22.9
2019-06-20T05:32:52.521Z,23.1
2019-06-20T05:33:42.413Z,23.3
2019-06-20T05:34:32.493Z,23.5
2019-06-20T05:35:22.488Z,23.7
2019-06-20T05:36:11.820Z,23.9
2019-06-20T05:37:02.693Z,24.1
2019-06-20T05:37:52.403Z,24.3
2019-06-20T05:38:42.458Z,24.5
2019-06-20T05:39:32.566Z,24.7
2019-06-20T05:40:22.576Z,24.9
2019-06-20T05:41:12.905Z,25.1
2019-06-20T05:42:02.994Z,25.3
2019-06-20T05:42:53.149Z,25.5
2019-06-20T05:43:43.113Z,25.6
2019-06-20T05:44:33.194Z,25.8
2019-06-20T05:45:23.220Z,25.9
2019-06-20T05:46:13.266Z,26
2019-06-20T05:47:14.935Z,26.1
2019-06-20T05:48:44.105Z,26.3
2019-06-20T05:49:33.511Z,26.4
2019-06-20T05:50:23.289Z,26.6
2019-06-20T05:51:13.775Z,26.6
2019-06-20T05:52:03.419Z,26.8
2019-06-20T05:52:54.408Z,26.9
2019-06-20T05:53:43.831Z,27
2019-06-20T05:54:33.310Z,22.4
2019-06-20T05:55:23.638Z,22.8
2019-06-20T05:56:13.701Z,28.9
2019-06-20T05:57:05.965Z,31.6
2019-06-20T05:57:54.113Z,31.4
2019-06-20T05:58:44.195Z,31.4
2019-06-20T05:59:34.213Z,31.4
2019-06-20T06:00:23.987Z,31.3
2019-06-20T06:01:14.334Z,31.3
2019-06-20T06:02:05.137Z,31.1
2019-06-20T06:04:01.815Z,30.8
2019-06-20T06:04:51.892Z,30.7
2019-06-20T06:05:41.940Z,30.6
2019-06-20T06:06:31.998Z,30.5
2019-06-20T06:07:22.991Z,30.4
2019-06-20T06:08:12.149Z,30.3
2019-06-20T06:09:02.114Z,30.3
2019-06-20T06:09:51.952Z,30.3
2019-06-20T06:10:42.902Z,30.2
2019-06-20T06:11:32.083Z,30.1
2019-06-20T06:12:22.148Z,30.1
2019-06-20T06:13:12.476Z,30.1
2019-06-20T06:14:02.257Z,30.1
2019-06-20T06:14:52.629Z,30.1
2019-06-20T06:15:43.441Z,30.1
2019-06-20T06:16:32.694Z,30.1
2019-06-20T06:17:22.759Z,30.1
2019-06-20T06:18:12.557Z,30.2
2019-06-20T06:19:02.879Z,30.3
2019-06-20T06:19:52.516Z,30.3
2019-06-20T06:20:46.392Z,30.3
2019-06-20T06:21:32.849Z,30.4
2019-06-20T06:22:23.124Z,30.4
2019-06-20T06:23:12.923Z,30.6
2019-06-20T06:24:03.247Z,30.6
2019-06-20T06:24:53.365Z,30.8
2019-06-20T06:25:43.376Z,30.1
2019-06-20T06:26:33.193Z,30.9
2019-06-20T06:27:23.492Z,33.2
2019-06-20T06:28:13.721Z,33.5
2019-06-20T06:29:03.323Z,35.3
2019-06-20T06:29:53.395Z,35.9
2019-06-20T06:30:43.753Z,35.9
2019-06-20T06:31:33.511Z,35.6
2019-06-20T06:32:41.246Z,35.5
2019-06-20T06:34:03.718Z,36
2019-06-20T06:34:54.003Z,36.4
2019-06-20T06:35:43.603Z,36.8
2019-06-20T06:36:34.157Z,36.9
2019-06-20T06:37:23.924Z,37
2019-06-20T06:38:13.755Z,37.1
2019-06-20T06:39:04.352Z,37.3
2019-06-20T06:39:54.180Z,37.5
2019-06-20T06:40:44.441Z,37.8
2019-06-20T06:41:34.256Z,37.9
2019-06-20T06:42:24.011Z,38.1
2019-06-20T06:43:14.605Z,38.3
2019-06-20T06:44:06.364Z,38.4
2019-06-20T06:44:54.738Z,38.5
2019-06-20T06:45:44.844Z,38.7
2019-06-20T06:47:00.063Z,38.8
2019-06-20T06:48:14.439Z,39.1
2019-06-20T06:49:05.107Z,39.3
2019-06-20T06:49:55.128Z,39.4
2019-06-20T06:50:44.915Z,39.6
2019-06-20T06:51:38.670Z,39.7
2019-06-20T06:52:25.299Z,39.8
2019-06-20T06:53:15.339Z,39.9
2019-06-20T06:54:04.842Z,40.1
2019-06-20T06:54:55.469Z,40.3
2019-06-20T06:55:45.511Z,40.4
2019-06-20T06:56:35.567Z,40.6
2019-06-20T06:57:25.651Z,40.7
2019-06-20T06:58:15.702Z,40.8
2019-06-20T06:59:05.480Z,40.9
2019-06-20T06:59:55.865Z,41.1
2019-06-20T07:00:45.595Z,41.3
2019-06-20T07:01:35.949Z,41.4
2019-06-20T07:04:01.812Z,41.8
2019-06-20T07:04:51.569Z,41.9
2019-06-20T07:05:41.938Z,42
2019-06-20T07:06:31.688Z,42.1
2019-06-20T07:07:21.761Z,42.3
2019-06-20T07:08:12.086Z,42.4
2019-06-20T07:09:02.238Z,42.6
2019-06-20T07:09:51.948Z,42.7
2019-06-20T07:10:42.311Z,42.9
2019-06-20T07:11:31.786Z,43
2019-06-20T07:12:22.396Z,43.1
2019-06-20T07:13:12.456Z,43.3
2019-06-20T07:14:02.789Z,43.4
2019-06-20T07:14:52.569Z,43.6
2019-06-20T07:15:42.649Z,43.7
2019-06-20T07:16:32.425Z,43.8
2019-06-20T07:17:22.479Z,43.9
2019-06-20T07:18:12.831Z,44.1
2019-06-20T07:19:02.891Z,44.3
2019-06-20T07:19:52.755Z,44.4
2019-06-20T07:20:43.018Z,44.5
2019-06-20T07:21:33.095Z,44.6
2019-06-20T07:22:23.125Z,44.8
2019-06-20T07:23:12.906Z,44.9
2019-06-20T07:24:03.003Z,45.1
2019-06-20T07:24:52.841Z,45.2
2019-06-20T07:25:43.103Z,45.4
2019-06-20T07:26:32.868Z,45.5
2019-06-20T07:27:23.483Z,45.6
2019-06-20T07:28:13.553Z,45.8
2019-06-20T07:29:03.318Z,45.9
2019-06-20T07:29:53.382Z,45.3
2019-06-20T07:30:43.842Z,44.6
2019-06-20T07:31:33.255Z,43.5
2019-06-20T07:32:23.578Z,42.6
2019-06-20T07:33:13.946Z,42.4
2019-06-20T07:34:04.007Z,42.4
2019-06-20T07:34:54.052Z,42.4
2019-06-20T07:35:44.226Z,42.6
2019-06-20T07:36:33.899Z,42.7
2019-06-20T07:37:24.263Z,42.8
2019-06-20T07:38:14.026Z,42.9
2019-06-20T07:39:04.355Z,43
2019-06-20T07:39:54.445Z,43.1
2019-06-20T07:40:44.479Z,43.3
2019-06-20T07:41:34.666Z,43.4
2019-06-20T07:42:24.584Z,43.6
2019-06-20T07:43:14.693Z,43.9
2019-06-20T07:44:04.732Z,44.1
2019-06-20T07:44:54.746Z,44.3
2019-06-20T07:46:03.856Z,44.4
2019-06-20T07:47:24.655Z,44.8
2019-06-20T07:48:14.882Z,45.1
2019-06-20T07:49:05.094Z,45.3
2019-06-20T07:49:55.139Z,45.4
2019-06-20T07:50:44.938Z,45.6
2019-06-20T07:51:34.986Z,45.9
2019-06-20T07:52:25.436Z,46
2019-06-20T07:53:15.374Z,46.3
2019-06-20T07:54:05.146Z,46.4
2019-06-20T07:54:55.486Z,46.6
2019-06-20T07:55:45.549Z,46.8
2019-06-20T07:56:35.560Z,47
2019-06-20T07:57:25.663Z,47.1
2019-06-20T07:58:15.452Z,47.3
2019-06-20T07:59:05.511Z,47.5
2019-06-20T07:59:55.563Z,47.7
2019-06-20T08:00:45.679Z,47.9
2019-06-20T08:01:35.706Z,48.1
2019-06-20T08:02:25.758Z,48.2
2019-06-20T08:03:16.147Z,48.4
2019-06-20T08:04:05.998Z,48.5
2019-06-20T08:04:56.239Z,48.7
2019-06-20T08:05:46.013Z,48.9
2019-06-20T08:06:35.815Z,49
2019-06-20T08:07:26.131Z,49.2
2019-06-20T08:08:16.465Z,49.3
2019-06-20T08:09:06.528Z,49.5
2019-06-20T08:09:56.599Z,49.6
2019-06-20T08:10:46.390Z,49.8
2019-06-20T08:11:36.822Z,49.9
2019-06-20T08:12:26.769Z,50.1
2019-06-20T08:13:16.948Z,50.3
2019-06-20T08:14:06.900Z,50.4
2019-06-20T08:14:56.938Z,50.6
2019-06-20T08:16:36.801Z,50.9
2019-06-20T08:17:37.134Z,51
2019-06-20T08:19:07.254Z,51.3
2019-06-20T08:19:56.799Z,51.4
2019-06-20T08:20:47.375Z,51.6
2019-06-20T08:21:37.434Z,51.8
2019-06-20T08:22:27.507Z,51.9
2019-06-20T08:23:17.577Z,52
2019-06-20T08:24:07.346Z,52.1
2019-06-20T08:24:59.480Z,52.3
2019-06-20T08:25:47.524Z,52.4
2019-06-20T08:26:37.792Z,52.6
2019-06-20T08:27:27.859Z,52.7
2019-06-20T08:28:17.927Z,52.8
2019-06-20T08:29:22.540Z,52.9
2019-06-20T08:30:05.102Z,53.1
2019-06-20T08:31:38.172Z,53.3
2019-06-20T08:32:28.241Z,53.4
2019-06-20T08:33:18.286Z,53.6
2019-06-20T08:34:08.344Z,53.7
2019-06-20T08:35:04.423Z,53.8
2019-06-20T08:35:48.285Z,53.9
2019-06-20T08:36:38.291Z,54
2019-06-20T08:37:28.339Z,54.2
2019-06-20T08:38:18.667Z,54.3
2019-06-20T08:39:08.738Z,54.4
2019-06-20T08:40:01.986Z,54.5
2019-06-20T08:40:48.849Z,54.6
2019-06-20T08:41:38.937Z,54.8
2019-06-20T08:42:28.706Z,54.8
2019-06-20T08:43:19.090Z,54.9
2019-06-20T08:44:08.809Z,55.1
2019-06-20T08:45:00.163Z,55.2
2019-06-20T08:45:49.371Z,55.3
2019-06-20T08:46:39.307Z,55.4
2019-06-20T08:47:29.337Z,55.5
2019-06-20T08:48:19.500Z,55.6
2019-06-20T08:49:09.541Z,55.8
2019-06-20T08:50:03.765Z,55.8
2019-06-20T08:50:49.583Z,55.9
2019-06-20T08:51:39.621Z,55.9
2019-06-20T08:52:29.128Z,56.1
2019-06-20T08:53:19.984Z,56.2
2019-06-20T08:54:09.809Z,56.3
2019-06-20T08:55:03.348Z,56.4
2019-06-20T08:55:49.943Z,56.4
2019-06-20T08:56:40.019Z,56.6
2019-06-20T08:57:30.095Z,56.6
2019-06-20T08:58:20.139Z,56.7
2019-06-20T08:59:25.730Z,56.8
2019-06-20T09:00:50.035Z,57
2019-06-20T09:01:40.097Z,57.1
2019-06-20T09:02:30.452Z,57.1
2019-06-20T09:03:20.529Z,57.2
2019-06-20T09:04:10.574Z,57.3
2019-06-20T09:05:50.680Z,57.4
2019-06-20T09:06:40.484Z,57.5
2019-06-20T09:07:30.548Z,57.6
2019-06-20T09:08:20.846Z,57.6
2019-06-20T09:10:04.145Z,57.9
2019-06-20T09:10:51.111Z,57.9
2019-06-20T09:11:41.090Z,57.9
2019-06-20T09:12:31.180Z,58.1
2019-06-20T09:13:21.261Z,58.1
2019-06-20T09:14:11.293Z,58.3
2019-06-20T09:15:03.760Z,58.3
2019-06-20T09:15:52.198Z,58.4
2019-06-20T09:16:41.181Z,58.5
2019-06-20T09:17:31.297Z,58.6
2019-06-20T09:18:21.315Z,58.7
2019-06-20T09:19:11.374Z,58.8
2019-06-20T09:20:03.525Z,58.8
2019-06-20T09:20:56.488Z,58.9
2019-06-20T09:21:41.335Z,58.9
2019-06-20T09:22:31.626Z,59.1
2019-06-20T09:23:21.983Z,59.1
2019-06-20T09:24:11.860Z,59.2
2019-06-20T09:25:03.865Z,59.3
2019-06-20T09:25:53.398Z,59.4
2019-06-20T09:26:41.988Z,59.5
2019-06-20T09:27:32.283Z,59.5
2019-06-20T09:28:22.356Z,59.6
2019-06-20T09:29:12.402Z,59.7
2019-06-20T09:30:04.504Z,59.8
2019-06-20T09:30:57.551Z,59.9
2019-06-20T09:31:42.636Z,59.9
2019-06-20T09:32:32.678Z,60
2019-06-20T09:33:22.706Z,60.1
2019-06-20T09:34:12.756Z,60.2
2019-06-20T09:35:04.463Z,60.2
2019-06-20T09:35:57.973Z,60.3
2019-06-20T09:36:43.012Z,60.3
2019-06-20T09:37:33.236Z,60.1
2019-06-20T09:38:23.145Z,60.2
2019-06-20T09:39:13.166Z,60.4
2019-06-20T09:40:04.684Z,60.5
2019-06-20T09:40:56.807Z,60.6
2019-06-20T09:41:43.342Z,60.7
2019-06-20T09:42:33.430Z,60.8
2019-06-20T09:43:29.178Z,60.8
2019-06-20T09:44:13.325Z,60.9
2019-06-20T09:45:04.484Z,60.9
2019-06-20T09:45:58.357Z,60.6
2019-06-20T09:46:43.445Z,60.3
2019-06-20T09:47:33.793Z,60
2019-06-20T09:48:23.814Z,59.8
2019-06-20T09:49:13.916Z,59.7
2019-06-20T09:50:03.708Z,59.7
2019-06-20T09:50:58.530Z,59.6
2019-06-20T09:51:44.077Z,59.9
2019-06-20T09:52:33.998Z,60.3
2019-06-20T09:53:24.266Z,60.7
2019-06-20T09:54:14.284Z,60.9
2019-06-20T09:55:04.363Z,61
2019-06-20T09:55:56.230Z,61.1
2019-06-20T09:56:54.725Z,61.1
2019-06-20T09:58:24.579Z,61.3
2019-06-20T09:59:29.120Z,61.4
2019-06-20T10:00:12.426Z,61.5
2019-06-20T10:01:46.709Z,61.7
2019-06-20T10:02:35.048Z,61.8
2019-06-20T10:05:02.005Z,61.8
2019-06-20T10:05:56.543Z,61.8
2019-06-20T10:06:41.956Z,61.7
2019-06-20T10:07:32.015Z,61.8
2019-06-20T10:08:21.770Z,61.9
2019-06-20T10:09:12.013Z,62.1
2019-06-20T10:10:02.292Z,62.3
2019-06-20T10:10:56.244Z,62.4
2019-06-20T10:11:42.325Z,62.4
2019-06-20T10:12:32.387Z,62.5
2019-06-20T10:13:22.419Z,62.6
2019-06-20T10:14:12.485Z,62.7
2019-06-20T10:15:02.756Z,62.7
2019-06-20T10:15:55.651Z,62.8
2019-06-20T10:16:56.779Z,62.9
2019-06-20T10:18:22.738Z,63
2019-06-20T10:19:14.996Z,63.1
2019-06-20T10:20:02.644Z,63.2
2019-06-20T10:20:54.104Z,63.2
2019-06-20T10:21:43.200Z,63.3
2019-06-20T10:22:33.099Z,63.4
2019-06-20T10:23:23.151Z,63.4
2019-06-20T10:24:13.332Z,63.5
2019-06-20T10:25:03.292Z,63.6
2019-06-20T10:25:54.642Z,63.7
2019-06-20T10:26:43.366Z,63.8
2019-06-20T10:27:33.486Z,63.8
2019-06-20T10:28:23.732Z,63.9
2019-06-20T10:29:13.591Z,63.9
2019-06-20T10:30:15.989Z,63.9
2019-06-20T10:31:47.794Z,64.1
2019-06-20T10:32:33.826Z,64.2
2019-06-20T10:33:24.096Z,64.3
2019-06-20T10:34:13.948Z,64.3
2019-06-20T10:35:04.278Z,64.4
2019-06-20T10:35:54.218Z,64.4
2019-06-20T10:36:48.673Z,64.5
2019-06-20T10:37:34.417Z,64.6
2019-06-20T10:38:24.270Z,64.6
2019-06-20T10:39:14.309Z,64.7
2019-06-20T10:40:04.399Z,64.8
2019-06-20T10:40:54.428Z,64.8
2019-06-20T10:41:50.235Z,64.9
2019-06-20T10:43:24.618Z,65.1
2019-06-20T10:44:14.703Z,65.1
2019-06-20T10:45:04.990Z,65.2
2019-06-20T10:45:55.019Z,65.3
2019-06-20T10:46:49.666Z,65.3
2019-06-20T10:47:37.621Z,65.4
2019-06-20T10:48:24.736Z,65.4
2019-06-20T10:49:15.036Z,65.6
2019-06-20T10:50:05.332Z,65.6
2019-06-20T10:50:55.133Z,65.7
2019-06-20T10:51:48.171Z,65.7
2019-06-20T10:52:35.231Z,65.8
2019-06-20T10:53:25.383Z,65.9
2019-06-20T10:54:15.619Z,65.9
2019-06-20T10:55:05.702Z,66.1
2019-06-20T10:55:55.565Z,66.1
2019-06-20T10:56:49.407Z,66.2
2019-06-20T10:57:35.659Z,66.3
2019-06-20T10:58:25.574Z,66.4
2019-06-20T10:59:15.770Z,66.4
2019-06-20T11:00:05.866Z,66.4
2019-06-20T11:00:55.908Z,66.5
2019-06-20T11:01:48.915Z,66.6
2019-06-20T11:02:36.055Z,66.6
2019-06-20T11:03:26.321Z,66.8
2019-06-20T11:04:16.167Z,66.8
2019-06-20T11:05:06.232Z,66.9
2019-06-20T11:05:56.294Z,66.9
2019-06-20T11:06:49.625Z,67.1
2019-06-20T11:07:36.430Z,67.1
2019-06-20T11:08:26.657Z,67.1
2019-06-20T11:09:16.512Z,67.2
2019-06-20T11:10:06.601Z,67.3
2019-06-20T11:10:56.648Z,67.1
2019-06-20T11:11:49.539Z,67.1
2019-06-20T11:12:56.946Z,67.1
2019-06-20T11:14:16.909Z,67.4
2019-06-20T11:15:07.001Z,67.5
2019-06-20T11:15:57.025Z,67.6
2019-06-20T11:16:49.271Z,67.6
2019-06-20T11:17:41.918Z,67.6
2019-06-20T11:19:17.232Z,67.4
2019-06-20T11:20:07.308Z,67.4
2019-06-20T11:20:57.352Z,67.4
2019-06-20T11:21:48.652Z,67.6
2019-06-20T11:22:43.730Z,67.8
2019-06-20T11:24:17.659Z,67.6
2019-06-20T11:25:07.653Z,67.3
2019-06-20T11:25:57.745Z,66.9
2019-06-20T11:26:48.980Z,66.8
2019-06-20T11:27:40.963Z,66.6
2019-06-20T11:28:27.949Z,66.4
2019-06-20T11:29:18.073Z,66.3
2019-06-20T11:30:07.766Z,66.2
2019-06-20T11:31:02.152Z,66.1
2019-06-20T11:31:50.972Z,65.9
2019-06-20T11:32:41.524Z,65.8
2019-06-20T11:33:28.263Z,65.7
2019-06-20T11:34:18.355Z,65.6
2019-06-20T11:35:08.367Z,65.5